EDT,Max TemperatureF,Mean TemperatureF,Min TemperatureF,Max Dew PointF,MeanDew PointF,Min DewpointF,Max Humidity, Mean Humidity, Min Humidity, Max Sea Level PressureIn, Mean Sea Level PressureIn, Min Sea Level PressureIn, Max VisibilityMiles, Mean VisibilityMiles, Min VisibilityMiles, Max Wind SpeedMPH, Mean Wind SpeedMPH, Max Gust SpeedMPH,PrecipitationIn, CloudCover, Events, WindDirDegrees
2013-7-1,84,80,76,75,73,70,85,75,65,30.04,29.97,29.91,10,8,1,24,12,33,0.22,4,Rain-Thunderstorm,183
2013-7-2,86,82,78,77,74,72,85,80,74,30.09,30.04,29.96,10,8,0,26,8,31,0.05,4,Fog-Rain,140
2013-7-3,85,82,79,76,74,68,85,77,69,30.10,30.06,30.03,10,10,4,25,12,38,T,3,Rain,129
2013-7-4,88,84,79,77,75,72,85,77,68,30.11,30.07,30.04,10,10,2,23,16,29,0.15,2,Rain,115
2013-7-5,87,82,76,77,74,72,85,75,65,30.10,30.07,30.03,10,8,0,31,11,39,0.51,3,Fog-Rain-Thunderstorm,115
2013-7-6,88,84,80,77,76,74,85,78,70,30.07,30.04,30.01,10,10,2,21,13,31,0.17,3,Rain-Thunderstorm,109
2013-7-7,88,85,82,76,74,73,79,71,63,30.08,30.04,30.01,10,10,9,21,13,25,T,1,,94
2013-7-8,88,84,79,75,73,68,85,72,59,30.13,30.09,30.05,10,10,8,21,11,28,0.04,1,Rain,84
2013-7-9,87,82,76,75,73,68,79,69,59,30.14,30.10,30.05,10,9,2,15,5,18,0.24,2,Rain,64
2013-7-10,88,82,76,76,73,72,85,74,63,30.09,30.05,30.01,10,10,7,16,6,20,0.08,3,Rain-Thunderstorm,55
2013-7-11,88,81,74,76,73,67,91,75,58,30.06,30.00,29.77,10,9,1,15,5,20,0.55,3,Rain-Thunderstorm,131
2013-7-12,86,84,82,76,74,71,79,70,61,29.99,29.95,29.92,10,10,5,14,7,17,0.00,1,,168
2013-7-13,86,82,78,76,74,71,79,72,65,30.01,29.96,29.93,10,10,9,24,12,30,0.03,4,Rain-Thunderstorm,183
2013-7-14,88,82,76,77,74,72,85,77,68,30.06,30.02,29.97,10,9,1,29,11,38,0.37,5,Rain-Thunderstorm,138
2013-7-15,86,82,78,75,73,71,85,75,65,30.07,30.04,30.00,10,10,3,21,9,26,T,2,Rain,80
2013-7-16,84,80,75,75,73,70,87,78,69,30.09,30.05,30.01,10,8,1,25,12,33,0.40,4,Rain,84
2013-7-17,81,77,72,75,73,71,100,87,74,30.12,30.08,30.03,10,7,1,21,9,25,3.06,6,Rain,108
2013-7-18,84,80,76,77,74,72,91,83,74,30.11,30.07,30.03,10,10,7,17,9,24,0.01,3,Rain,98
2013-7-19,87,82,77,79,77,75,94,83,72,30.11,30.07,30.03,10,10,10,16,12,22,T,1,,105
2013-7-20,87,84,81,79,77,76,91,83,74,30.10,30.06,30.03,10,10,10,15,9,18,0.00,0,,132
2013-7-21,88,85,81,78,77,74,88,80,72,30.14,30.10,30.06,10,10,10,13,10,21,0.00,1,,116
2013-7-22,87,84,81,76,75,73,79,74,68,30.16,30.11,30.08,10,10,10,15,10,18,0.00,1,,103
2013-7-23,90,86,81,76,74,73,85,75,64,30.13,30.07,30.02,10,10,10,14,6,17,0.00,1,,132
2013-7-24,88,84,80,74,73,71,79,70,61,30.05,30.01,29.97,10,10,10,10,4,14,0.00,3,,245
2013-7-25,87,83,78,75,73,72,85,73,61,30.07,30.02,29.96,10,10,10,13,7,16,0.00,2,,264
2013-7-26,88,84,79,75,74,72,85,74,63,30.08,30.05,30.02,10,10,10,14,7,16,0.01,2,,273
2013-7-27,88,85,82,76,75,73,79,71,63,30.04,30.01,29.97,10,10,10,13,6,16,0.00,3,Rain,294
2013-7-28,88,84,80,76,74,72,85,74,63,30.07,30.02,29.97,10,10,10,9,3,13,0.00,2,,143
2013-7-29,90,86,81,77,75,73,79,72,64,30.12,30.08,30.02,10,10,10,14,8,18,0.00,1,,103
2013-7-30,88,85,82,77,76,72,85,77,69,30.15,30.10,30.07,10,10,10,17,8,21,T,2,Rain,85
2013-7-31,89,85,81,77,76,74,85,75,64,30.10,30.05,29.98,10,10,10,18,11,23,T,2,Rain-Thunderstorm,81